Time;durP1;ratioP1;P1;durP2;ratioP2;P2;SDS_P1;SDS_P2;PMS_P1;PMS_P2;Temp;Humidity;BMP_temperature;BMP_pressure;BME280_temperature;BME280_humidity;BME280_pressure;Samples;Min_cycle;Max_cycle;Signal;HPM_P1;HPM_P2
2022/12/02 00:00:49;;;;;;;;;;;;;;;4.44;100.00;102592.13;6215907;23;19912;-81
2022/12/02 00:03:16;;;;;;;;;;;;;;;4.48;100.00;102590.53;6215618;23;19966;-81
2022/12/02 00:05:41;;;;;;;;;;;;;;;4.43;100.00;102589.50;6214356;23;19916;-81
2022/12/02 00:08:13;;;;;;;;;;;;;;;4.45;100.00;102585.28;6215848;23;19973;-82
2022/12/02 00:10:38;;;;;;;;;;;;;;;4.44;100.00;102593.84;6215117;23;20324;-81
2022/12/02 00:13:23;;;;;;;;;;;;;;;4.42;100.00;102588.63;6214929;23;19919;-81
2022/12/02 00:15:58;;;;;;;;;;;;;;;4.43;100.00;102602.44;6213775;23;20257;-81
2022/12/02 00:18:24;;;;;;;;;;;;;;;4.40;100.00;102594.59;6215615;23;19991;-81
2022/12/02 00:20:49;;;;;;;;;;;;;;;4.39;100.00;102591.13;6215096;23;19961;-81
2022/12/02 00:23:14;;;;;;;;;;;;;;;4.37;100.00;102591.91;6215622;23;20240;-81
2022/12/02 00:25:41;;;;;;;;;;;;;;;4.35;100.00;102593.56;6214299;23;20217;-81
2022/12/02 00:28:07;;;;;;;;;;;;;;;4.32;100.00;102589.19;6216072;23;19912;-81
2022/12/02 00:30:32;;;;;;;;;;;;;;;4.32;100.00;102589.19;6215145;23;20023;-81
2022/12/02 00:32:57;;;;;;;;;;;;;;;4.31;100.00;102592.59;6214693;23;20084;-81
2022/12/02 00:35:23;;;;;;;;;;;;;;;4.28;100.00;102577.00;6215438;23;19912;-81
2022/12/02 00:37:48;;;;;;;;;;;;;;;4.33;100.00;102572.88;6214197;23;20227;-81
2022/12/02 00:40:13;;;;;;;;;;;;;;;4.20;100.00;102576.78;6214733;23;19912;-81
2022/12/02 00:42:39;;;;;;;;;;;;;;;4.16;100.00;102574.06;6215583;23;19918;-81
2022/12/02 00:47:48;;;;;;;;;;;;;;;4.07;100.00;102572.06;6214592;23;19973;-82
2022/12/02 00:50:14;;;;;;;;;;;;;;;4.06;100.00;102566.88;6214523;23;20666;-81
2022/12/02 00:52:39;;;;;;;;;;;;;;;4.08;100.00;102573.81;6215140;23;19919;-81
2022/12/02 00:55:04;;;;;;;;;;;;;;;4.06;100.00;102562.59;6214743;23;19999;-81
2022/12/02 00:57:29;;;;;;;;;;;;;;;4.08;100.00;102562.63;6215640;23;19918;-81
2022/12/02 00:59:55;;;;;;;;;;;;;;;4.03;100.00;102562.50;6215072;23;19912;-81
2022/12/02 01:02:20;;;;;;;;;;;;;;;4.03;100.00;102559.03;6215051;23;20022;-81
2022/12/02 01:04:45;;;;;;;;;;;;;;;3.99;100.00;102558.94;6214455;23;20348;-81
2022/12/02 01:07:10;;;;;;;;;;;;;;;3.95;100.00;102564.81;6214890;23;20471;-81
2022/12/02 01:09:35;;;;;;;;;;;;;;;3.98;100.00;102556.31;6215089;23;19936;-81
2022/12/02 01:12:01;;;;;;;;;;;;;;;3.94;100.00;102559.63;6215300;23;20335;-81
2022/12/02 01:14:26;;;;;;;;;;;;;;;3.95;100.00;102551.03;6214699;23;19958;-81
2022/12/02 01:16:51;;;;;;;;;;;;;;;3.96;100.00;102561.44;6213689;23;19920;-81
2022/12/02 01:19:17;;;;;;;;;;;;;;;3.92;100.00;102556.09;6215066;23;19912;-81
2022/12/02 01:21:42;;;;;;;;;;;;;;;3.91;100.00;102555.25;6215034;23;19915;-81
2022/12/02 01:24:07;;;;;;;;;;;;;;;3.89;100.00;102551.75;6215022;23;20236;-81
2022/12/02 01:26:32;;;;;;;;;;;;;;;3.91;100.00;102554.38;6214958;23;19919;-81
2022/12/02 01:28:57;;;;;;;;;;;;;;;3.92;100.00;102554.44;6214867;23;19923;-81
2022/12/02 01:31:23;;;;;;;;;;;;;;;3.90;100.00;102555.19;6214659;23;20303;-81
2022/12/02 01:33:48;;;;;;;;;;;;;;;3.89;100.00;102551.75;6215263;23;19912;-81
2022/12/02 01:36:13;;;;;;;;;;;;;;;3.90;100.00;102558.66;6213658;23;19916;-81
2022/12/02 01:38:38;;;;;;;;;;;;;;;3.88;100.00;102547.41;6214054;23;19912;-81
2022/12/02 01:41:04;;;;;;;;;;;;;;;3.89;100.00;102551.75;6215975;23;19916;-81
2022/12/02 01:43:29;;;;;;;;;;;;;;;3.86;100.00;102556.81;6216688;23;19908;-81
2022/12/02 01:45:54;;;;;;;;;;;;;;;3.91;100.00;102552.66;6215939;23;20303;-81
2022/12/02 01:48:20;;;;;;;;;;;;;;;3.86;100.00;102556.81;6216907;23;20382;-81
2022/12/02 01:50:46;;;;;;;;;;;;;;;3.86;100.00;102556.81;6216291;23;20282;-81
2022/12/02 01:53:11;;;;;;;;;;;;;;;3.84;100.00;102553.28;6217108;23;19919;-81
2022/12/02 01:55:36;;;;;;;;;;;;;;;3.83;100.00;102555.84;6216791;23;19935;-81
2022/12/02 01:58:02;;;;;;;;;;;;;;;3.82;100.00;102552.34;6214238;23;20247;-81
2022/12/02 02:00:27;;;;;;;;;;;;;;;3.82;100.00;102547.19;6217419;23;19919;-81
2022/12/02 02:02:52;;;;;;;;;;;;;;;3.82;100.00;102549.78;6216381;23;19990;-81
2022/12/02 02:05:20;;;;;;;;;;;;;;;3.83;100.00;102546.41;6215964;23;19979;-81
2022/12/02 02:07:47;;;;;;;;;;;;;;;3.83;100.00;102551.56;6216508;23;19958;-81
2022/12/02 02:10:13;;;;;;;;;;;;;;;3.85;100.00;102549.00;6217140;23;19912;-81
2022/12/02 02:12:38;;;;;;;;;;;;;;;3.83;100.00;102543.81;6215646;23;19912;-81
2022/12/02 02:15:05;;;;;;;;;;;;;;;3.81;100.00;102542.88;6216443;23;19918;-81
2022/12/02 02:17:30;;;;;;;;;;;;;;;3.85;100.00;102544.72;6216467;23;20287;-81
2022/12/02 02:19:55;;;;;;;;;;;;;;;3.80;100.00;102546.28;6215364;23;19939;-81
2022/12/02 02:22:25;;;;;;;;;;;;;;;3.80;100.00;102545.44;6216773;23;20213;-81
2022/12/02 02:24:50;;;;;;;;;;;;;;;3.80;100.00;102548.88;6215824;23;19947;-81
2022/12/02 02:27:15;;;;;;;;;;;;;;;3.81;100.00;102548.03;6216374;23;19908;-81
2022/12/02 02:29:41;;;;;;;;;;;;;;;3.81;100.00;102542.00;6215152;23;19923;-81
2022/12/02 02:32:06;;;;;;;;;;;;;;;3.84;100.00;102537.81;6216574;23;19958;-81
2022/12/02 02:34:32;;;;;;;;;;;;;;;3.80;100.00;102540.25;6216440;23;19979;-81
2022/12/02 02:36:57;;;;;;;;;;;;;;;3.78;100.00;102537.63;6216224;23;19916;-81
2022/12/02 02:39:23;;;;;;;;;;;;;;;3.74;100.00;102541.81;6215314;23;19970;-81
2022/12/02 02:41:48;;;;;;;;;;;;;;;3.71;100.00;102539.13;6216624;23;20346;-81
2022/12/02 02:44:14;;;;;;;;;;;;;;;3.66;100.00;102538.13;6217047;23;19912;-81
2022/12/02 02:46:39;;;;;;;;;;;;;;;3.62;100.00;102538.81;6214778;23;19919;-80
2022/12/02 02:49:04;;;;;;;;;;;;;;;3.62;100.00;102525.06;6216126;23;20296;-81
2022/12/02 02:51:29;;;;;;;;;;;;;;;3.57;100.00;102531.78;6216760;23;19912;-81
2022/12/02 02:53:55;;;;;;;;;;;;;;;3.52;100.00;102532.50;6215513;23;19912;-81
2022/12/02 02:56:20;;;;;;;;;;;;;;;3.54;100.00;102529.13;6215585;23;19912;-81
2022/12/02 02:58:45;;;;;;;;;;;;;;;3.54;100.00;102523.97;6215356;23;20245;-81
2022/12/02 03:01:13;;;;;;;;;;;;;;;3.49;100.00;102526.38;6215275;23;19912;-81
2022/12/02 03:03:43;;;;;;;;;;;;;;;3.48;100.00;102532.38;6216434;23;19994;-81
2022/12/02 03:06:09;;;;;;;;;;;;;;;3.43;100.00;102528.75;6215847;23;19912;-80
2022/12/02 03:08:37;;;;;;;;;;;;;;;3.43;100.00;102521.00;6215779;23;19912;-81
2022/12/02 03:11:02;;;;;;;;;;;;;;;3.35;100.00;102512.16;6215927;23;20270;-81
2022/12/02 03:13:29;;;;;;;;;;;;;;;3.34;100.00;102511.28;6216655;23;19939;-81
2022/12/02 03:15:55;;;;;;;;;;;;;;;3.34;100.00;102508.72;6214316;23;20390;-80
2022/12/02 03:18:20;;;;;;;;;;;;;;;3.35;100.00;102510.44;6216462;23;19911;-81
2022/12/02 03:20:45;;;;;;;;;;;;;;;3.31;100.00;102503.47;6215503;23;20232;-81
2022/12/02 03:23:11;;;;;;;;;;;;;;;3.29;100.00;102499.94;6214846;23;20232;-81
2022/12/02 03:25:36;;;;;;;;;;;;;;;3.26;100.00;102500.72;6215790;23;19912;-81
2022/12/02 03:28:02;;;;;;;;;;;;;;;3.27;100.00;102501.59;6215538;23;19916;-81
2022/12/02 03:30:27;;;;;;;;;;;;;;;3.26;100.00;102505.00;6215688;23;19916;-81
2022/12/02 03:32:53;;;;;;;;;;;;;;;3.21;100.00;102504.84;6215617;23;20213;-80
2022/12/02 03:35:18;;;;;;;;;;;;;;;3.21;100.00;102511.72;6215322;23;19962;-81
2022/12/02 03:37:43;;;;;;;;;;;;;;;3.23;100.00;102515.19;6215479;23;19912;-81
2022/12/02 03:40:09;;;;;;;;;;;;;;;3.17;100.00;102515.88;6216423;23;19986;-81
2022/12/02 03:42:34;;;;;;;;;;;;;;;3.18;100.00;102522.78;6215573;23;19915;-81
2022/12/02 03:45:00;;;;;;;;;;;;;;;3.13;100.00;102508.84;6215594;23;19990;-80
2022/12/02 03:47:25;;;;;;;;;;;;;;;3.19;100.00;102506.50;6215221;23;19923;-81
2022/12/02 03:49:51;;;;;;;;;;;;;;;3.10;100.00;102493.28;6214918;23;19912;-81
2022/12/02 03:52:16;;;;;;;;;;;;;;;3.06;100.00;102499.16;6215189;23;19965;-81
2022/12/02 03:54:41;;;;;;;;;;;;;;;3.08;100.00;102505.25;6215855;23;19920;-81
2022/12/02 03:57:07;;;;;;;;;;;;;;;3.07;100.00;102503.50;6214901;23;20264;-81
2022/12/02 03:59:32;;;;;;;;;;;;;;;2.99;100.00;102497.22;6215438;23;19916;-81
2022/12/02 04:01:58;;;;;;;;;;;;;;;2.96;100.00;102479.94;6214425;23;19916;-81
2022/12/02 04:04:23;;;;;;;;;;;;;;;2.97;100.00;102484.25;6214773;23;19912;-81
2022/12/02 04:06:48;;;;;;;;;;;;;;;2.99;100.00;102487.78;6215170;23;19912;-81
2022/12/02 04:09:13;;;;;;;;;;;;;;;2.95;100.00;102482.50;6216017;23;19911;-80
2022/12/02 04:11:39;;;;;;;;;;;;;;;2.92;100.00;102482.38;6214997;23;19919;-81
2022/12/02 04:14:04;;;;;;;;;;;;;;;2.93;100.00;102484.13;6215329;23;19916;-81
2022/12/02 04:16:29;;;;;;;;;;;;;;;2.94;100.00;102488.44;6214791;23;19912;-81
2022/12/02 04:18:56;;;;;;;;;;;;;;;2.83;100.00;102471.75;6214998;23;19940;-80
2022/12/02 04:21:23;;;;;;;;;;;;;;;2.87;100.00;102477.06;6215449;23;19919;-80
2022/12/02 04:23:48;;;;;;;;;;;;;;;2.87;100.00;102482.19;6215330;23;19907;-81
2022/12/02 04:26:14;;;;;;;;;;;;;;;2.86;100.00;102485.63;6214545;23;19919;-80
2022/12/02 04:28:39;;;;;;;;;;;;;;;2.89;100.00;102483.16;6213875;23;19995;-81
2022/12/02 04:31:04;;;;;;;;;;;;;;;2.86;100.00;102480.47;6214726;23;19987;-81
2022/12/02 04:33:29;;;;;;;;;;;;;;;2.89;100.00;102466.81;6215228;23;19912;-81
2022/12/02 04:35:54;;;;;;;;;;;;;;;2.89;100.00;102472.84;6215154;23;19916;-80
2022/12/02 04:38:20;;;;;;;;;;;;;;;2.89;100.00;102482.28;6215480;23;19912;-81
2022/12/02 04:40:47;;;;;;;;;;;;;;;2.88;100.00;102465.03;6214916;23;19912;-81
2022/12/02 04:43:12;;;;;;;;;;;;;;;2.88;100.00;102476.25;6216129;23;19918;-81
2022/12/02 04:45:38;;;;;;;;;;;;;;;2.86;100.00;102475.31;6214337;23;20300;-81
2022/12/02 04:48:03;;;;;;;;;;;;;;;2.85;100.00;102473.56;6214105;23;20240;-81
2022/12/02 04:50:28;;;;;;;;;;;;;;;2.84;100.00;102476.94;6215451;23;19919;-81
2022/12/02 04:52:53;;;;;;;;;;;;;;;2.84;100.00;102469.22;6215273;23;19982;-80
2022/12/02 04:55:18;;;;;;;;;;;;;;;2.84;100.00;102468.34;6214530;23;20313;-81
2022/12/02 04:57:44;;;;;;;;;;;;;;;2.78;100.00;102463.88;6215004;23;19911;-81
2022/12/02 05:00:09;;;;;;;;;;;;;;;2.81;100.00;102464.88;6214987;23;19919;-81
2022/12/02 05:02:34;;;;;;;;;;;;;;;2.77;100.00;102462.97;6215257;23;20320;-81
2022/12/02 05:05:00;;;;;;;;;;;;;;;2.73;100.00;102455.09;6214200;23;19935;-81
2022/12/02 05:07:25;;;;;;;;;;;;;;;2.69;100.00;102460.97;6213579;23;19923;-80
2022/12/02 05:09:50;;;;;;;;;;;;;;;2.69;100.00;102451.56;6214931;23;19915;-81
2022/12/02 05:12:16;;;;;;;;;;;;;;;2.68;100.00;102454.06;6214915;23;19911;-81
2022/12/02 05:14:41;;;;;;;;;;;;;;;2.67;100.00;102455.75;6214351;23;20343;-81
2022/12/02 05:17:06;;;;;;;;;;;;;;;2.65;100.00;102456.53;6214581;23;20271;-81
2022/12/02 05:19:32;;;;;;;;;;;;;;;2.66;100.00;102442.84;6215350;23;19969;-81
2022/12/02 05:21:57;;;;;;;;;;;;;;;2.67;100.00;102447.16;6214778;23;20291;-81
2022/12/02 05:24:22;;;;;;;;;;;;;;;2.65;100.00;102446.22;6214958;23;19962;-80
2022/12/02 05:26:47;;;;;;;;;;;;;;;2.66;100.00;102442.84;6213888;23;20312;-81
2022/12/02 05:29:12;;;;;;;;;;;;;;;2.64;100.00;102442.78;6214781;23;19912;-80
2022/12/02 05:31:38;;;;;;;;;;;;;;;2.62;100.00;102441.88;6215478;23;19940;-81
2022/12/02 05:34:03;;;;;;;;;;;;;;;2.65;100.00;102446.22;6214804;23;19912;-81
2022/12/02 05:36:28;;;;;;;;;;;;;;;2.65;100.00;102451.38;6213528;23;19994;-80
2022/12/02 05:38:53;;;;;;;;;;;;;;;2.59;100.00;102457.22;6215084;23;19954;-80
2022/12/02 05:41:18;;;;;;;;;;;;;;;2.60;100.00;102452.94;6214464;23;19912;-81
2022/12/02 05:43:43;;;;;;;;;;;;;;;2.69;100.00;102432.66;6213188;23;19912;-81
2022/12/02 05:46:14;;;;;;;;;;;;;;;2.59;100.00;102428.88;6214866;23;19916;-81
2022/12/02 05:48:39;;;;;;;;;;;;;;;2.61;100.00;102434.94;6214726;23;19919;-81
2022/12/02 05:51:08;;;;;;;;;;;;;;;2.56;100.00;102434.81;6214454;23;19912;-81
2022/12/02 05:53:33;;;;;;;;;;;;;;;2.53;100.00;102437.25;6215335;23;19919;-81
2022/12/02 05:55:59;;;;;;;;;;;;;;;2.53;100.00;102432.13;6214943;23;19944;-81
2022/12/02 05:58:24;;;;;;;;;;;;;;;2.54;100.00;102435.56;6214631;23;20223;-81
2022/12/02 06:00:53;;;;;;;;;;;;;;;2.53;100.00;102442.41;6214710;23;19912;-81
2022/12/02 06:03:19;;;;;;;;;;;;;;;2.65;100.00;102441.06;6213980;23;19912;-81
2022/12/02 06:05:44;;;;;;;;;;;;;;;2.55;100.00;102438.22;6215136;23;19918;-81
2022/12/02 06:08:15;;;;;;;;;;;;;;;2.56;100.00;102444.22;6213713;23;20661;-81
2022/12/02 06:10:41;;;;;;;;;;;;;;;2.52;100.00;102437.22;6213569;23;19919;-81
2022/12/02 06:13:13;;;;;;;;;;;;;;;2.55;100.00;102443.34;6215527;23;19912;-81
2022/12/02 06:15:38;;;;;;;;;;;;;;;2.54;100.00;102436.44;6215065;23;19916;-80
2022/12/02 06:18:20;;;;;;;;;;;;;;;2.53;100.00;102439.84;6214312;23;19912;-81
2022/12/02 06:20:46;;;;;;;;;;;;;;;2.56;100.00;102444.22;6214553;23;19912;-80
2022/12/02 06:23:16;;;;;;;;;;;;;;;2.57;100.00;102445.97;6213467;23;19915;-81
2022/12/02 06:25:43;;;;;;;;;;;;;;;2.57;100.00;102439.13;6212997;23;19940;-81
2022/12/02 06:28:19;;;;;;;;;;;;;;;2.55;100.00;102443.34;6215698;23;19977;-80
2022/12/02 06:30:45;;;;;;;;;;;;;;;2.58;100.00;102440.00;6215854;23;19969;-81
2022/12/02 06:33:19;;;;;;;;;;;;;;;2.59;100.00;102436.63;6216620;23;19920;-80
2022/12/02 06:35:44;;;;;;;;;;;;;;;2.57;100.00;102439.13;6214989;23;19912;-81
2022/12/02 06:38:21;;;;;;;;;;;;;;;2.56;100.00;102437.38;6215831;23;19912;-80
2022/12/02 06:40:47;;;;;;;;;;;;;;;2.57;100.00;102433.97;6215710;23;19951;-81
2022/12/02 06:43:16;;;;;;;;;;;;;;;2.50;100.00;102442.31;6216195;23;19970;-80
2022/12/02 06:45:44;;;;;;;;;;;;;;;2.48;100.00;102436.22;6216292;23;19915;-81
2022/12/02 06:48:20;;;;;;;;;;;;;;;2.48;100.00;102438.78;6216491;23;19912;-81
2022/12/02 06:50:46;;;;;;;;;;;;;;;2.48;100.00;102437.91;6216417;23;19912;-80
2022/12/02 06:53:19;;;;;;;;;;;;;;;2.48;100.00;102441.38;6215861;23;20388;-80
2022/12/02 06:55:44;;;;;;;;;;;;;;;2.44;100.00;102436.94;6215890;23;19958;-81
2022/12/02 06:58:21;;;;;;;;;;;;;;;2.46;100.00;102437.88;6216758;23;20329;-81
2022/12/02 07:00:46;;;;;;;;;;;;;;;2.45;100.00;102431.00;6215132;23;19997;-80
2022/12/02 07:03:31;;;;;;;;;;;;;;;2.41;100.00;102436.81;6215233;23;19974;-81
2022/12/02 07:06:08;;;;;;;;;;;;;;;2.40;100.00;102442.81;6215881;23;19946;-81
2022/12/02 07:08:33;;;;;;;;;;;;;;;2.36;100.00;102442.66;6215666;23;19915;-81
2022/12/02 07:10:58;;;;;;;;;;;;;;;2.37;100.00;102440.13;6215319;23;20324;-80
2022/12/02 07:13:24;;;;;;;;;;;;;;;2.37;100.00;102441.81;6216457;23;19914;-81
2022/12/02 07:15:49;;;;;;;;;;;;;;;2.39;100.00;102442.72;6215134;23;19916;-80
2022/12/02 07:18:16;;;;;;;;;;;;;;;2.40;100.00;102447.94;6216141;23;19919;-81
2022/12/02 07:20:43;;;;;;;;;;;;;;;2.38;100.00;102441.00;6215648;23;19912;-80
2022/12/02 07:23:11;;;;;;;;;;;;;;;2.39;100.00;102448.78;6216170;23;19912;-80
2022/12/02 07:25:38;;;;;;;;;;;;;;;2.38;100.00;102441.88;6214993;23;19919;-80
2022/12/02 07:28:15;;;;;;;;;;;;;;;2.44;100.00;102452.38;6215828;23;19915;-80
2022/12/02 07:30:41;;;;;;;;;;;;;;;2.39;100.00;102445.31;6215620;23;20295;-80
2022/12/02 07:33:06;;;;;;;;;;;;;;;2.42;100.00;102445.41;6216444;23;20251;-80
2022/12/02 07:35:32;;;;;;;;;;;;;;;2.41;100.00;102444.53;6214561;23;20002;-80
2022/12/02 07:37:57;;;;;;;;;;;;;;;2.39;100.00;102443.63;6215945;23;19947;-81
2022/12/02 07:40:22;;;;;;;;;;;;;;;2.40;100.00;102445.38;6215077;23;19942;-80
2022/12/02 07:42:47;;;;;;;;;;;;;;;2.39;100.00;102441.06;6215582;23;19908;-80
2022/12/02 07:45:14;;;;;;;;;;;;;;;2.41;100.00;102441.09;6215941;23;19912;-79
2022/12/02 07:47:39;;;;;;;;;;;;;;;2.42;100.00;102442.84;6215643;23;20336;-79
2022/12/02 07:50:04;;;;;;;;;;;;;;;2.42;100.00;102441.19;6213458;23;19908;-78
2022/12/02 07:52:30;;;;;;;;;;;;;;;2.39;100.00;102438.50;6213004;23;20547;-79
2022/12/02 07:54:55;;;;;;;;;;;;;;;2.38;100.00;102438.41;6214704;23;19939;-79
2022/12/02 07:57:21;;;;;;;;;;;;;;;2.38;100.00;102434.16;6215632;23;20362;-79
2022/12/02 07:59:46;;;;;;;;;;;;;;;2.41;100.00;102434.25;6214681;23;19916;-79
2022/12/02 08:02:11;;;;;;;;;;;;;;;2.45;100.00;102443.84;6214905;23;19939;-78
2022/12/02 08:04:36;;;;;;;;;;;;;;;2.46;100.00;102445.59;6214828;23;20370;-77
2022/12/02 08:07:01;;;;;;;;;;;;;;;2.54;100.00;102448.44;6215820;23;19927;-76
2022/12/02 08:09:27;;;;;;;;;;;;;;;2.44;100.00;102449.81;6215718;23;20367;-78
2022/12/02 08:11:52;;;;;;;;;;;;;;;2.43;100.00;102444.63;6213974;23;20339;-78
2022/12/02 08:14:17;;;;;;;;;;;;;;;2.44;100.00;102447.22;6215428;23;19912;-78
2022/12/02 08:16:42;;;;;;;;;;;;;;;2.43;100.00;102444.63;6215756;23;19916;-78
2022/12/02 08:19:07;;;;;;;;;;;;;;;2.43;100.00;102445.50;6215372;23;20339;-78
2022/12/02 08:21:33;;;;;;;;;;;;;;;2.48;100.00;102443.06;6214942;23;20328;-77
2022/12/02 08:23:58;;;;;;;;;;;;;;;2.49;100.00;102442.25;6214437;23;19922;-76
2022/12/02 08:26:24;;;;;;;;;;;;;;;2.46;100.00;102445.59;6215261;23;19983;-76
2022/12/02 08:28:49;;;;;;;;;;;;;;;2.46;100.00;102450.75;6214145;23;19923;-76
2022/12/02 08:31:14;;;;;;;;;;;;;;;2.48;100.00;102443.94;6214640;23;20055;-76
2022/12/02 08:33:39;;;;;;;;;;;;;;;2.47;100.00;102437.03;6214432;23;20335;-80
2022/12/02 08:36:04;;;;;;;;;;;;;;;2.48;100.00;102438.78;6215444;23;19912;-77
2022/12/02 08:38:30;;;;;;;;;;;;;;;2.47;100.00;102431.91;6213841;23;19973;-77
2022/12/02 08:40:55;;;;;;;;;;;;;;;2.50;100.00;102434.59;6215651;23;20343;-77
2022/12/02 08:43:20;;;;;;;;;;;;;;;2.58;100.00;102437.41;6215013;23;20240;-79
2022/12/02 08:45:45;;;;;;;;;;;;;;;2.52;100.00;102439.81;6214071;23;19947;-80
2022/12/02 08:48:11;;;;;;;;;;;;;;;2.52;100.00;102435.53;6214539;23;20324;-83
2022/12/02 08:50:36;;;;;;;;;;;;;;;2.53;100.00;102442.41;6214504;23;19990;-87
2022/12/02 08:53:01;;;;;;;;;;;;;;;2.51;100.00;102441.47;6214246;23;20213;-85
2022/12/02 08:55:26;;;;;;;;;;;;;;;2.47;100.00;102434.47;6215108;23;19912;-77
2022/12/02 08:57:52;;;;;;;;;;;;;;;2.46;100.00;102444.72;6212658;23;20581;-70
2022/12/02 09:00:17;;;;;;;;;;;;;;;2.48;100.00;102445.63;6214723;23;19912;-75
2022/12/02 09:02:42;;;;;;;;;;;;;;;2.45;100.00;102440.38;6215402;23;19915;-80
2022/12/02 09:05:07;;;;;;;;;;;;;;;2.48;100.00;102433.63;6214208;23;19912;-80
2022/12/02 09:07:33;;;;;;;;;;;;;;;2.45;100.00;102436.13;6214831;23;19912;-80
2022/12/02 09:09:58;;;;;;;;;;;;;;;2.48;100.00;102432.78;6215454;23;19942;-81
2022/12/02 09:12:24;;;;;;;;;;;;;;;2.49;100.00;102435.41;6215317;23;19912;-81
2022/12/02 09:14:50;;;;;;;;;;;;;;;2.46;100.00;102440.44;6214689;23;19987;-81
2022/12/02 09:17:15;;;;;;;;;;;;;;;2.45;100.00;102437.81;6212822;23;19955;-82
2022/12/02 09:19:40;;;;;;;;;;;;;;;2.44;100.00;102436.94;6215086;23;19912;-81
2022/12/02 09:22:05;;;;;;;;;;;;;;;2.42;100.00;102433.44;6214591;23;20234;-80
2022/12/02 09:24:32;;;;;;;;;;;;;;;2.49;100.00;102444.84;6214808;23;19912;-80
2022/12/02 09:26:57;;;;;;;;;;;;;;;2.39;100.00;102443.63;6213691;23;19919;-81
2022/12/02 09:29:22;;;;;;;;;;;;;;;2.35;100.00;102428.88;6213913;23;19942;-80
2022/12/02 09:31:47;;;;;;;;;;;;;;;2.33;100.00;102434.00;6215129;23;19919;-80
2022/12/02 09:34:12;;;;;;;;;;;;;;;2.31;100.00;102430.47;6214357;23;19912;-80
2022/12/02 09:36:38;;;;;;;;;;;;;;;2.40;100.00;102434.22;6213320;23;20026;-80
2022/12/02 09:39:03;;;;;;;;;;;;;;;2.28;100.00;102430.38;6213859;23;19918;-80
2022/12/02 09:41:28;;;;;;;;;;;;;;;2.28;100.00;102430.38;6212089;23;19912;-81
2022/12/02 09:43:53;;;;;;;;;;;;;;;2.29;100.00;102427.00;6211833;23;19912;-81
2022/12/02 09:46:19;;;;;;;;;;;;;;;2.30;100.00;102420.13;6212781;23;20057;-82
2022/12/02 09:48:44;;;;;;;;;;;;;;;2.31;100.00;102424.47;6211410;23;20367;-81
2022/12/02 09:51:09;;;;;;;;;;;;;;;2.36;100.00;102422.94;6214153;23;19955;-80
2022/12/02 09:53:36;;;;;;;;;;;;;;;2.34;100.00;102414.28;6213850;23;19918;-81
2022/12/02 09:56:01;;;;;;;;;;;;;;;2.39;100.00;102417.91;6213172;23;19912;-80
2022/12/02 09:58:27;;;;;;;;;;;;;;;2.48;100.00;102417.31;6213823;23;19919;-80
2022/12/02 10:00:52;;;;;;;;;;;;;;;2.45;100.00;102414.63;6214694;23;19916;-80
2022/12/02 10:03:20;;;;;;;;;;;;;;;2.53;100.00;102411.53;6215854;23;19912;-80
2022/12/02 10:05:45;;;;;;;;;;;;;;;2.46;100.00;102414.72;6215791;23;20248;-81
2022/12/02 10:08:31;;;;;;;;;;;;;;;2.50;100.00;102407.97;6216421;23;19919;-81
2022/12/02 10:10:56;;;;;;;;;;;;;;;2.50;100.00;102413.97;6214538;23;19999;-81
2022/12/02 10:13:23;;;;;;;;;;;;;;;2.52;100.00;102417.50;6217095;23;20309;-81
2022/12/02 10:15:49;;;;;;;;;;;;;;;2.57;100.00;102405.66;6214782;23;19915;-81
2022/12/02 10:18:16;;;;;;;;;;;;;;;2.53;100.00;102406.38;6215174;23;19912;-80
2022/12/02 10:20:42;;;;;;;;;;;;;;;2.55;100.00;102406.41;6215666;23;19912;-80
2022/12/02 10:23:09;;;;;;;;;;;;;;;2.50;100.00;102406.25;6215545;23;19954;-80
2022/12/02 10:25:35;;;;;;;;;;;;;;;2.52;100.00;102409.78;6215354;23;19911;-80
2022/12/02 10:28:00;;;;;;;;;;;;;;;2.54;100.00;102413.25;6215532;23;19919;-80
2022/12/02 10:30:26;;;;;;;;;;;;;;;2.48;100.00;102407.03;6215856;23;19920;-82
2022/12/02 10:32:59;;;;;;;;;;;;;;;2.48;100.00;102407.91;6214912;23;19912;-80
2022/12/02 10:35:25;;;;;;;;;;;;;;;2.45;100.00;102397.53;6216941;23;19934;-81
2022/12/02 10:37:50;;;;;;;;;;;;;;;2.45;100.00;102400.09;6211388;23;19923;-79
2022/12/02 10:40:17;;;;;;;;;;;;;;;2.44;100.00;102398.31;6216272;23;19912;-79
2022/12/02 10:42:43;;;;;;;;;;;;;;;2.47;100.00;102398.44;6214921;23;20335;-78
2022/12/02 10:45:08;;;;;;;;;;;;;;;2.50;100.00;102388.25;6216388;23;19965;-79
2022/12/02 10:47:33;;;;;;;;;;;;;;;2.51;100.00;102395.13;6216664;23;19908;-78
2022/12/02 10:49:59;;;;;;;;;;;;;;;2.53;100.00;102393.50;6216306;23;19958;-78
2022/12/02 10:52:32;;;;;;;;;;;;;;;2.58;100.00;102379.09;6215379;23;19912;-78
2022/12/02 10:54:58;;;;;;;;;;;;;;;2.54;100.00;102384.06;6215107;23;19962;-77
2022/12/02 10:57:25;;;;;;;;;;;;;;;2.56;100.00;102385.88;6216050;23;20316;-78
2022/12/02 10:59:54;;;;;;;;;;;;;;;2.61;100.00;102382.56;6215154;23;19912;-78
2022/12/02 11:02:21;;;;;;;;;;;;;;;2.67;100.00;102382.78;6215924;23;19957;-78
2022/12/02 11:04:46;;;;;;;;;;;;;;;2.64;100.00;102391.28;6214745;23;19935;-78
2022/12/02 11:07:15;;;;;;;;;;;;;;;2.70;100.00;102372.59;6215494;23;19916;-78
2022/12/02 11:09:43;;;;;;;;;;;;;;;2.86;100.00;102369.69;6215684;23;19912;-78
2022/12/02 11:12:27;;;;;;;;;;;;;;;2.90;100.00;102371.53;6216385;23;20320;-79
2022/12/02 11:14:53;;;;;;;;;;;;;;;2.97;100.00;102375.19;6214487;23;19983;-78
2022/12/02 11:17:38;;;;;;;;;;;;;;;2.99;100.00;102368.41;6215917;23;20347;-79
2022/12/02 11:20:23;;;;;;;;;;;;;;;3.01;100.00;102366.75;6215315;23;19923;-79
2022/12/02 11:23:02;;;;;;;;;;;;;;;3.01;100.00;102370.19;6169320;23;19912;-78
2022/12/02 11:25:50;;;;;;;;;;;;;;;3.04;100.00;102366.81;6215954;23;19919;-78
2022/12/02 11:28:19;;;;;;;;;;;;;;;3.06;100.00;102365.19;6202479;23;19983;-77
2022/12/02 11:30:45;;;;;;;;;;;;;;;3.08;100.00;102360.97;6215090;23;20331;-77
2022/12/02 11:33:12;;;;;;;;;;;;;;;3.11;100.00;102352.47;6216023;23;19994;-78
2022/12/02 11:35:56;;;;;;;;;;;;;;;3.15;100.00;102352.59;6214248;23;19912;-78
2022/12/02 11:38:24;;;;;;;;;;;;;;;3.13;100.00;102361.09;6215551;23;19912;-78
2022/12/02 11:40:49;;;;;;;;;;;;;;;3.24;100.00;102349.44;6216072;23;19912;-78
2022/12/02 11:43:33;;;;;;;;;;;;;;;3.28;100.00;102353.84;6214993;23;19919;-78
2022/12/02 11:45:59;;;;;;;;;;;;;;;3.23;100.00;102355.41;6215326;23;19969;-77
2022/12/02 11:48:24;;;;;;;;;;;;;;;3.21;100.00;102354.50;6215338;23;19999;-77
2022/12/02 11:50:49;;;;;;;;;;;;;;;3.22;100.00;102348.50;6215611;23;19911;-77
2022/12/02 11:53:19;;;;;;;;;;;;;;;3.24;100.00;102342.56;6214822;23;19991;-78
2022/12/02 11:55:52;;;;;;;;;;;;;;;3.31;100.00;102353.06;6214916;23;19912;-77
2022/12/02 11:58:21;;;;;;;;;;;;;;;3.28;100.00;102346.13;6215464;23;19916;-77
2022/12/02 12:00:59;;;;;;;;;;;;;;;3.24;100.00;102355.47;6215716;23;19912;-77
2022/12/02 12:03:24;;;;;;;;;;;;;;;3.26;100.00;102342.59;6214663;23;19930;-77
2022/12/02 12:06:05;;;;;;;;;;;;;;;3.32;100.00;102347.94;6214891;23;20320;-78
2022/12/02 12:08:30;;;;;;;;;;;;;;;3.36;100.00;102342.03;6215029;23;19915;-77
2022/12/02 12:11:14;;;;;;;;;;;;;;;3.36;100.00;102343.75;6214257;23;19916;-78
2022/12/02 12:13:58;;;;;;;;;;;;;;;3.26;100.00;102334.88;6214653;23;19994;-78
2022/12/02 12:16:23;;;;;;;;;;;;;;;3.23;100.00;102333.06;6214641;23;19942;-78
2022/12/02 12:18:49;;;;;;;;;;;;;;;3.24;100.00;102336.56;6214932;23;19916;-78
2022/12/02 12:21:35;;;;;;;;;;;;;;;3.18;100.00;102332.06;6215214;23;19918;-78
2022/12/02 12:24:25;;;;;;;;;;;;;;;3.03;100.00;102331.59;6213917;23;19914;-78
2022/12/02 12:26:56;;;;;;;;;;;;;;;3.07;100.00;102332.56;6215202;23;19916;-78
2022/12/02 12:29:23;;;;;;;;;;;;;;;3.04;100.00;102329.06;6215688;23;20237;-78
2022/12/02 12:31:50;;;;;;;;;;;;;;;2.96;100.00;102338.25;6213455;23;21262;-78
2022/12/02 12:34:15;;;;;;;;;;;;;;;2.93;100.00;102321.81;6215320;23;19946;-78
2022/12/02 12:36:41;;;;;;;;;;;;;;;2.93;100.00;102325.28;6215197;23;19912;-78